createdAt,value
2022-12-11T00:02:10.734Z,19.30
2022-12-11T00:04:33.622Z,19.70
2022-12-11T00:06:56.469Z,18.77
2022-12-11T00:09:47.250Z,19.23
2022-12-11T00:12:14.947Z,18.97
2022-12-11T00:15:06.930Z,18.87
2022-12-11T00:17:31.188Z,17.93
2022-12-11T00:23:30.311Z,19.13
2022-12-11T00:26:13.179Z,18.67
2022-12-11T00:28:42.140Z,19.53
2022-12-11T00:31:05.764Z,20.20
2022-12-11T00:33:30.911Z,20.03
2022-12-11T00:35:53.485Z,19.90
2022-12-11T00:38:19.670Z,19.40
2022-12-11T00:40:42.252Z,19.77
2022-12-11T00:43:05.213Z,20.97
2022-12-11T00:45:28.327Z,19.87
2022-12-11T00:47:53.958Z,19.73
2022-12-11T00:50:19.754Z,20.00
2022-12-11T00:52:42.442Z,20.30
2022-12-11T00:55:08.228Z,20.53
2022-12-11T00:57:31.478Z,22.47
2022-12-11T00:59:53.982Z,20.10
2022-12-11T01:02:16.746Z,19.80
2022-12-11T01:04:39.363Z,19.47
2022-12-11T01:07:03.328Z,21.30
2022-12-11T01:12:54.585Z,18.63
2022-12-11T01:15:18.858Z,19.97
2022-12-11T01:17:41.315Z,18.87
2022-12-11T01:20:04.693Z,19.80
2022-12-11T01:22:27.262Z,18.70
2022-12-11T01:24:49.899Z,19.63
2022-12-11T01:27:14.872Z,20.03
2022-12-11T01:29:40.440Z,19.07
2022-12-11T01:32:03.274Z,18.73
2022-12-11T01:34:25.934Z,19.73
2022-12-11T01:36:48.752Z,20.03
2022-12-11T01:39:14.618Z,20.63
2022-12-11T01:41:37.214Z,20.83
2022-12-11T01:44:17.934Z,20.53
2022-12-11T01:46:53.716Z,20.00
2022-12-11T01:49:18.679Z,19.90
2022-12-11T01:52:08.960Z,19.10
2022-12-11T01:54:31.700Z,19.23
2022-12-11T01:57:06.142Z,20.67
2022-12-11T01:59:34.319Z,20.03
2022-12-11T02:01:56.919Z,19.40
2022-12-11T02:04:23.582Z,19.70
2022-12-11T02:06:49.195Z,20.80
2022-12-11T02:09:14.233Z,20.37
2022-12-11T02:11:49.158Z,20.67
2022-12-11T02:14:15.265Z,20.30
2022-12-11T02:16:44.213Z,20.83
2022-12-11T02:19:19.485Z,20.83
2022-12-11T02:22:04.799Z,22.27
2022-12-11T02:24:46.489Z,23.20
2022-12-11T02:27:15.128Z,22.93
2022-12-11T02:29:46.991Z,23.07
2022-12-11T02:32:12.061Z,25.57
2022-12-11T02:34:45.338Z,22.53
2022-12-11T02:37:10.609Z,22.93
2022-12-11T02:39:34.607Z,21.60
2022-12-11T02:41:57.420Z,22.43
2022-12-11T02:44:31.605Z,22.50
2022-12-11T02:46:54.875Z,22.40
2022-12-11T02:49:19.556Z,21.83
2022-12-11T02:51:43.147Z,20.70
2022-12-11T02:54:07.363Z,22.07
2022-12-11T02:56:49.117Z,20.33
2022-12-11T02:59:31.051Z,21.53
2022-12-11T03:01:54.482Z,23.67
2022-12-11T03:04:17.350Z,21.50
2022-12-11T03:06:44.563Z,20.90
2022-12-11T03:09:08.369Z,20.73
2022-12-11T03:11:31.140Z,22.37
2022-12-11T03:13:54.085Z,21.00
2022-12-11T03:16:25.705Z,21.37
2022-12-11T03:19:18.069Z,20.13
2022-12-11T03:21:55.859Z,20.57
2022-12-11T03:24:30.024Z,22.27
2022-12-11T03:27:00.967Z,22.53
2022-12-11T03:29:32.694Z,22.40
2022-12-11T03:32:06.315Z,22.10
2022-12-11T03:34:32.515Z,23.93
2022-12-11T03:36:56.665Z,22.77
2022-12-11T03:39:38.652Z,20.67
2022-12-11T03:42:03.104Z,21.57
2022-12-11T03:44:46.951Z,21.93
2022-12-11T03:47:26.971Z,22.27
2022-12-11T03:49:50.617Z,22.57
2022-12-11T03:52:17.085Z,23.37
2022-12-11T03:54:40.861Z,23.73
2022-12-11T03:57:07.453Z,24.17
2022-12-11T03:59:31.065Z,23.60
2022-12-11T04:01:55.914Z,23.33
2022-12-11T04:04:18.962Z,24.40
2022-12-11T04:06:41.825Z,25.30
2022-12-11T04:09:04.581Z,25.00
2022-12-11T04:11:36.390Z,25.00
2022-12-11T04:14:17.563Z,25.23
2022-12-11T04:16:40.239Z,23.80
2022-12-11T04:19:21.618Z,23.47
2022-12-11T04:22:02.916Z,21.53
2022-12-11T04:24:25.417Z,20.37
2022-12-11T04:27:00.791Z,19.50
2022-12-11T04:29:23.629Z,18.53
2022-12-11T04:31:47.309Z,19.13
2022-12-11T04:34:18.955Z,18.33
2022-12-11T04:36:41.594Z,19.80
2022-12-11T04:39:34.161Z,20.07
2022-12-11T04:42:02.134Z,20.60
2022-12-11T04:44:25.991Z,21.17
2022-12-11T04:46:48.498Z,20.00
2022-12-11T04:49:11.400Z,20.67
2022-12-11T04:51:34.379Z,17.73
2022-12-11T04:53:57.465Z,18.87
2022-12-11T04:56:20.610Z,18.00
2022-12-11T04:58:44.581Z,18.40
2022-12-11T05:01:16.806Z,18.73
2022-12-11T05:03:39.578Z,18.27
2022-12-11T05:06:05.816Z,18.60
2022-12-11T05:08:28.882Z,18.87
2022-12-11T05:11:00.469Z,16.67
2022-12-11T05:13:22.878Z,17.53
2022-12-11T05:15:45.325Z,17.97
2022-12-11T05:18:08.419Z,17.67
2022-12-11T05:20:31.173Z,18.50
2022-12-11T05:22:59.695Z,17.67
2022-12-11T05:25:23.099Z,17.63
2022-12-11T05:27:45.885Z,19.00
2022-12-11T05:30:10.125Z,17.93
2022-12-11T05:32:36.017Z,20.03
2022-12-11T05:35:01.357Z,18.27
2022-12-11T05:37:30.306Z,19.67
2022-12-11T05:40:55.902Z,19.80
2022-12-11T05:43:01.763Z,18.90
2022-12-11T05:48:37.532Z,18.67
2022-12-11T05:51:00.959Z,18.63
2022-12-11T05:53:24.320Z,17.83
2022-12-11T05:55:46.921Z,16.73
2022-12-11T05:58:12.767Z,18.47
2022-12-11T06:00:36.303Z,17.40
2022-12-11T06:06:28.342Z,16.83
2022-12-11T06:09:03.374Z,16.97
2022-12-11T06:11:29.668Z,17.50
2022-12-11T06:13:56.146Z,17.83
2022-12-11T06:20:20.589Z,45.70
2022-12-11T06:29:48.046Z,16.03
2022-12-11T06:32:54.567Z,17.00
2022-12-11T06:54:47.307Z,15.03
2022-12-11T06:57:10.783Z,14.57
2022-12-11T06:59:37.968Z,16.03
2022-12-11T07:02:08.543Z,15.87
2022-12-11T07:10:34.622Z,13.87
2022-12-11T07:12:59.939Z,14.93
2022-12-11T07:29:17.103Z,14.70
2022-12-11T07:31:52.192Z,14.90
2022-12-11T07:34:17.660Z,14.70
2022-12-11T07:36:40.709Z,15.47
2022-12-11T07:39:03.769Z,14.17
2022-12-11T07:41:31.453Z,14.27
2022-12-11T07:43:55.228Z,14.33
2022-12-11T07:46:23.807Z,18.07
2022-12-11T07:52:32.019Z,17.03
2022-12-11T07:54:54.860Z,14.33
2022-12-11T07:57:26.738Z,14.33
2022-12-11T07:59:59.200Z,14.10
2022-12-11T08:09:58.367Z,12.83
2022-12-11T08:12:21.228Z,13.77
2022-12-11T08:14:53.480Z,14.73
2022-12-11T08:23:30.687Z,14.27
2022-12-11T08:26:05.623Z,14.33
2022-12-11T08:32:06.393Z,13.77
2022-12-11T08:38:10.125Z,15.40
2022-12-11T08:40:40.558Z,15.43
2022-12-11T08:43:03.617Z,14.90
2022-12-11T08:45:36.688Z,15.93
2022-12-11T08:48:02.170Z,16.43
2022-12-11T08:53:51.753Z,15.67
2022-12-11T09:00:32.928Z,15.17
2022-12-11T09:03:00.835Z,14.70
2022-12-11T09:09:31.256Z,12.87
2022-12-11T09:12:07.542Z,14.10
2022-12-11T09:29:19.296Z,14.13
2022-12-11T09:32:05.091Z,13.90
2022-12-11T09:34:29.570Z,15.53
2022-12-11T09:36:52.428Z,15.67
2022-12-11T09:46:09.814Z,13.63
2022-12-11T09:55:56.470Z,14.67
2022-12-11T09:58:32.823Z,13.33
2022-12-11T10:01:02.884Z,15.57
2022-12-11T10:03:34.151Z,14.43
2022-12-11T10:06:02.669Z,14.77
2022-12-11T10:08:34.300Z,16.53
2022-12-11T10:11:14.342Z,13.77
2022-12-11T10:13:36.604Z,14.70
2022-12-11T10:16:13.321Z,14.73
2022-12-11T10:18:36.499Z,14.90
2022-12-11T10:21:01.810Z,14.37
2022-12-11T10:23:35.681Z,13.67
2022-12-11T10:26:05.188Z,14.83
2022-12-11T10:28:28.210Z,13.60
2022-12-11T10:31:01.212Z,14.83
2022-12-11T10:33:27.438Z,14.27
2022-12-11T10:35:51.852Z,14.70
2022-12-11T10:38:17.028Z,13.77
2022-12-11T10:40:41.105Z,13.07
2022-12-11T10:43:03.919Z,14.00
2022-12-11T10:45:29.157Z,13.90
2022-12-11T10:48:24.236Z,13.47
2022-12-11T10:50:57.232Z,13.57
2022-12-11T10:53:29.308Z,12.47
2022-12-11T10:55:52.571Z,12.63
2022-12-11T10:58:23.503Z,13.20
2022-12-11T11:00:54.035Z,13.53
2022-12-11T11:03:30.067Z,14.30
2022-12-11T11:06:11.693Z,14.07
2022-12-11T11:08:42.616Z,14.63
2022-12-11T11:11:05.872Z,15.03
2022-12-11T11:13:29.905Z,15.20
2022-12-11T11:16:04.147Z,14.63
2022-12-11T11:18:27.799Z,14.77
2022-12-11T11:20:50.460Z,14.23
2022-12-11T11:23:16.987Z,15.70
2022-12-11T11:25:40.580Z,15.67
2022-12-11T11:28:04.970Z,14.80
2022-12-11T11:30:30.062Z,14.60
2022-12-11T11:32:55.074Z,14.60
2022-12-11T11:35:23.119Z,14.83
2022-12-11T11:37:48.123Z,14.20
2022-12-11T11:40:25.401Z,14.00
2022-12-11T11:42:51.549Z,14.43
2022-12-11T11:45:17.266Z,15.67
2022-12-11T11:47:44.399Z,14.37
2022-12-11T11:50:08.981Z,15.33
2022-12-11T11:52:31.551Z,15.30
2022-12-11T11:54:58.490Z,14.87
2022-12-11T11:57:24.787Z,15.90
2022-12-11T12:00:13.560Z,16.17
2022-12-11T12:02:36.719Z,16.17
2022-12-11T12:04:59.380Z,15.20
2022-12-11T12:07:22.402Z,14.67
2022-12-11T12:09:45.018Z,16.53
2022-12-11T12:12:22.952Z,13.90
2022-12-11T12:14:54.817Z,13.87
2022-12-11T12:17:21.008Z,13.57
2022-12-11T12:19:49.395Z,12.83
2022-12-11T12:22:15.031Z,13.57
2022-12-11T12:24:43.385Z,15.10
2022-12-11T12:27:49.897Z,14.17
2022-12-11T12:30:22.414Z,13.27
2022-12-11T12:32:55.226Z,12.77
2022-12-11T12:35:32.780Z,13.73
2022-12-11T12:37:55.476Z,13.13
2022-12-11T12:40:36.037Z,13.63
2022-12-11T12:43:09.424Z,13.97
2022-12-11T12:45:43.904Z,14.87
2022-12-11T12:48:08.852Z,13.50
2022-12-11T12:50:40.366Z,13.93
2022-12-11T12:53:17.707Z,13.77
2022-12-11T12:55:40.844Z,13.90
2022-12-11T12:58:05.289Z,13.60
2022-12-11T13:00:30.504Z,14.50
2022-12-11T13:02:54.169Z,13.47
2022-12-11T13:05:35.263Z,14.20
2022-12-11T13:08:02.342Z,12.83
2022-12-11T13:10:36.023Z,13.33
2022-12-11T13:12:58.926Z,13.90
2022-12-11T13:15:35.750Z,13.20
2022-12-11T13:17:59.018Z,13.67
2022-12-11T13:20:22.875Z,14.20
2022-12-11T13:22:49.375Z,16.17
2022-12-11T13:25:22.088Z,12.87
2022-12-11T13:27:44.354Z,12.77
2022-12-11T13:30:08.699Z,13.30
2022-12-11T13:32:31.380Z,13.30
2022-12-11T13:34:56.680Z,13.93
2022-12-11T13:37:35.629Z,13.77
2022-12-11T13:39:58.269Z,13.50
2022-12-11T13:42:28.651Z,13.63
2022-12-11T13:44:52.002Z,13.40
2022-12-11T13:47:16.227Z,13.10
2022-12-11T13:49:39.695Z,14.03
2022-12-11T13:52:02.571Z,13.47
2022-12-11T13:54:28.271Z,14.33
2022-12-11T13:56:59.848Z,13.83
2022-12-11T13:59:27.094Z,14.90
2022-12-11T14:01:50.419Z,14.53
2022-12-11T14:04:16.587Z,15.87
2022-12-11T14:06:39.763Z,14.47
2022-12-11T14:09:03.531Z,13.63
2022-12-11T14:11:29.970Z,14.03
2022-12-11T14:13:52.211Z,15.33
2022-12-11T14:16:21.946Z,15.93
2022-12-11T14:18:44.287Z,14.00
2022-12-11T14:21:07.326Z,14.37
2022-12-11T14:23:32.777Z,15.63
2022-12-11T14:25:56.603Z,15.50
2022-12-11T14:31:27.208Z,13.83
2022-12-11T14:33:56.230Z,13.20
2022-12-11T14:36:18.800Z,15.07
2022-12-11T14:38:47.736Z,13.77
2022-12-11T14:41:17.334Z,14.03
2022-12-11T14:43:44.025Z,13.70
2022-12-11T14:46:10.973Z,14.60
2022-12-11T14:48:35.939Z,14.37
2022-12-11T14:50:59.840Z,12.83
2022-12-11T14:53:24.360Z,12.97
2022-12-11T14:55:48.115Z,13.30
2022-12-11T14:58:17.663Z,13.57
2022-12-11T15:00:44.179Z,14.57
2022-12-11T15:03:07.990Z,14.50
2022-12-11T15:05:40.399Z,14.13
2022-12-11T15:08:09.072Z,13.23
2022-12-11T15:10:51.660Z,14.43
2022-12-11T15:13:23.625Z,13.30
2022-12-11T15:15:47.153Z,13.87
2022-12-11T15:18:16.940Z,17.40
2022-12-11T15:20:39.728Z,18.70
2022-12-11T15:23:02.519Z,32.43
2022-12-11T15:25:29.647Z,13.57
2022-12-11T15:27:57.073Z,12.67
2022-12-11T15:30:40.843Z,13.57
2022-12-11T15:33:05.088Z,14.57
2022-12-11T15:35:28.370Z,13.90
2022-12-11T15:37:55.056Z,14.23
2022-12-11T15:40:17.747Z,13.60
2022-12-11T15:42:45.290Z,13.97
2022-12-11T15:45:09.358Z,13.40
2022-12-11T15:47:32.221Z,13.00
2022-12-11T15:50:16.911Z,14.27
2022-12-11T15:53:02.662Z,14.67
2022-12-11T15:55:27.894Z,12.97
2022-12-11T16:01:27.566Z,13.67
2022-12-11T16:03:50.501Z,14.47
2022-12-11T16:06:14.340Z,13.70
2022-12-11T16:08:36.627Z,12.77
2022-12-11T16:10:59.316Z,14.37
2022-12-11T16:13:23.060Z,12.80
2022-12-11T16:15:46.459Z,13.23
2022-12-11T16:18:13.603Z,13.37
2022-12-11T16:23:14.749Z,13.90
2022-12-11T16:25:43.828Z,13.87
2022-12-11T16:28:15.609Z,14.33
2022-12-11T16:30:39.648Z,15.80
2022-12-11T16:33:03.827Z,13.17
2022-12-11T16:35:30.425Z,13.73
2022-12-11T16:37:54.470Z,14.00
2022-12-11T16:40:16.915Z,16.30
2022-12-11T16:42:39.231Z,14.97
2022-12-11T16:45:10.352Z,13.63
2022-12-11T16:47:32.893Z,14.80
2022-12-11T16:49:55.665Z,13.63
2022-12-11T16:52:22.107Z,12.70
2022-12-11T16:54:44.768Z,13.30
2022-12-11T16:57:07.007Z,13.93
2022-12-11T16:59:35.148Z,14.27
2022-12-11T17:02:02.296Z,15.10
2022-12-11T17:04:24.570Z,15.07
2022-12-11T17:06:47.043Z,17.13
2022-12-11T17:09:09.233Z,16.73
2022-12-11T17:11:31.991Z,14.77
2022-12-11T17:13:55.320Z,15.30
2022-12-11T17:16:17.672Z,14.93
2022-12-11T17:18:41.402Z,16.30
2022-12-11T17:21:11.518Z,16.13
2022-12-11T17:23:36.863Z,15.73
2022-12-11T17:25:59.370Z,16.43
2022-12-11T17:28:43.160Z,16.37
2022-12-11T17:31:31.606Z,15.80
2022-12-11T17:33:54.712Z,16.43
2022-12-11T17:36:18.767Z,16.97
2022-12-11T17:38:44.250Z,16.83
2022-12-11T17:41:14.249Z,18.17
2022-12-11T17:43:41.254Z,18.70
2022-12-11T17:46:04.490Z,17.37
2022-12-11T17:48:41.171Z,17.73
2022-12-11T17:51:06.711Z,17.83
2022-12-11T17:53:30.722Z,18.13
2022-12-11T17:55:53.967Z,18.30
2022-12-11T17:58:20.545Z,16.67
2022-12-11T18:00:45.073Z,18.73
2022-12-11T18:03:07.855Z,19.90
2022-12-11T18:05:30.041Z,18.20
2022-12-11T18:07:57.440Z,17.20
2022-12-11T18:10:20.343Z,17.20
2022-12-11T18:12:42.762Z,16.17
2022-12-11T18:15:05.792Z,18.87
2022-12-11T18:17:28.193Z,18.43
2022-12-11T18:19:50.452Z,17.80
2022-12-11T18:22:12.741Z,26.97
2022-12-11T18:24:35.025Z,18.43
2022-12-11T18:27:00.165Z,19.03
2022-12-11T18:29:22.606Z,20.17
2022-12-11T18:31:45.978Z,18.03
2022-12-11T18:34:11.635Z,21.10
2022-12-11T18:36:34.372Z,18.87
2022-12-11T18:38:56.879Z,19.20
2022-12-11T18:41:22.817Z,17.53
2022-12-11T18:43:45.688Z,17.17
2022-12-11T18:46:12.890Z,18.20
2022-12-11T18:48:35.382Z,19.27
2022-12-11T18:50:59.128Z,18.27
2022-12-11T18:53:22.717Z,17.97
2022-12-11T18:55:45.699Z,17.93
2022-12-11T18:58:07.991Z,20.30
2022-12-11T19:00:30.316Z,19.90
2022-12-11T19:02:53.970Z,20.00
2022-12-11T19:05:16.287Z,20.73
2022-12-11T19:07:39.191Z,20.87
2022-12-11T19:10:01.728Z,19.93
2022-12-11T19:12:24.389Z,19.87
2022-12-11T19:14:46.852Z,20.33
2022-12-11T19:17:09.500Z,20.30
2022-12-11T19:19:31.700Z,20.30
2022-12-11T19:21:54.159Z,18.53
2022-12-11T19:24:18.212Z,20.60
2022-12-11T19:26:40.666Z,19.53
2022-12-11T19:29:03.092Z,19.00
2022-12-11T19:31:25.638Z,24.50
2022-12-11T19:33:48.205Z,21.17
2022-12-11T19:36:12.519Z,21.47
2022-12-11T19:38:34.972Z,22.07
2022-12-11T19:41:51.779Z,18.57
2022-12-11T19:44:14.182Z,19.17
2022-12-11T19:46:39.823Z,17.30
2022-12-11T19:49:02.510Z,18.53
2022-12-11T19:51:26.428Z,18.73
2022-12-11T19:53:49.867Z,18.70
2022-12-11T19:56:16.172Z,17.93
2022-12-11T19:58:38.901Z,17.67
2022-12-11T20:01:04.632Z,19.00
2022-12-11T20:03:27.427Z,17.90
2022-12-11T20:05:50.056Z,18.40
2022-12-11T20:08:42.963Z,18.23
2022-12-11T20:10:55.543Z,18.67
2022-12-11T20:13:20.876Z,18.23
2022-12-11T20:15:43.850Z,16.00
2022-12-11T20:18:06.564Z,19.07
2022-12-11T20:20:39.111Z,20.90
2022-12-11T20:23:05.241Z,19.67
2022-12-11T20:25:28.239Z,20.20
2022-12-11T20:31:40.934Z,20.97
2022-12-11T20:34:03.730Z,21.43
2022-12-11T20:36:29.100Z,19.27
2022-12-11T20:38:54.765Z,20.77
2022-12-11T20:41:20.110Z,20.10
2022-12-11T20:43:43.089Z,21.70
2022-12-11T20:46:10.114Z,20.83
2022-12-11T20:48:51.629Z,17.70
2022-12-11T20:51:14.961Z,16.27
2022-12-11T20:53:37.960Z,16.83
2022-12-11T20:56:00.632Z,18.30
2022-12-11T20:58:24.019Z,16.87
2022-12-11T21:00:54.056Z,17.70
2022-12-11T21:03:17.219Z,18.87
2022-12-11T21:05:46.607Z,17.07
2022-12-11T21:08:09.341Z,16.27
2022-12-11T21:10:31.632Z,15.70
2022-12-11T21:12:53.939Z,17.00
2022-12-11T21:15:16.668Z,15.97
2022-12-11T21:17:39.242Z,15.10
2022-12-11T21:20:01.594Z,16.57
2022-12-11T21:22:23.976Z,16.67
2022-12-11T21:24:46.343Z,15.47
2022-12-11T21:27:08.922Z,15.03
2022-12-11T21:29:32.095Z,16.37
2022-12-11T21:31:54.618Z,15.00
2022-12-11T21:34:24.871Z,16.80
2022-12-11T21:36:48.179Z,15.90
2022-12-11T21:39:12.114Z,15.73
2022-12-11T21:41:34.658Z,16.00
2022-12-11T21:46:54.743Z,15.33
2022-12-11T21:49:20.689Z,17.57
2022-12-11T21:51:47.400Z,16.57
2022-12-11T21:54:15.702Z,17.30
2022-12-11T21:56:38.315Z,15.00
2022-12-11T21:59:04.078Z,15.97
2022-12-11T22:01:30.853Z,15.03
2022-12-11T22:04:14.194Z,14.87
2022-12-11T22:09:18.590Z,16.57
2022-12-11T22:11:42.024Z,14.93
2022-12-11T22:14:06.926Z,15.97
2022-12-11T22:16:33.753Z,15.00
2022-12-11T22:18:56.402Z,15.30
2022-12-11T22:21:19.280Z,14.70
2022-12-11T22:23:42.420Z,15.77
2022-12-11T22:26:05.168Z,14.43
2022-12-11T22:28:27.563Z,15.20
2022-12-11T22:30:50.273Z,14.20
2022-12-11T22:33:12.633Z,15.43
2022-12-11T22:35:34.947Z,15.43
2022-12-11T22:38:03.092Z,15.00
2022-12-11T22:40:26.759Z,16.53
2022-12-11T22:42:49.024Z,15.10
2022-12-11T22:45:11.766Z,15.73
2022-12-11T22:47:34.585Z,15.80
2022-12-11T22:49:56.980Z,16.43
2022-12-11T22:52:19.654Z,16.77
2022-12-11T22:54:42.946Z,17.00
2022-12-11T22:57:07.059Z,16.67
2022-12-11T22:59:32.347Z,16.80
2022-12-11T23:01:55.024Z,16.80
2022-12-11T23:04:17.472Z,15.27
2022-12-11T23:06:39.927Z,16.50
2022-12-11T23:09:02.439Z,17.07
2022-12-11T23:11:35.421Z,16.60
2022-12-11T23:13:58.249Z,16.37
2022-12-11T23:16:46.967Z,15.87
2022-12-11T23:19:10.310Z,16.00
2022-12-11T23:21:33.644Z,15.70
2022-12-11T23:23:56.837Z,17.07
2022-12-11T23:26:22.301Z,15.40
2022-12-11T23:28:51.278Z,18.07
2022-12-11T23:31:14.453Z,16.20
2022-12-11T23:33:37.666Z,17.40
2022-12-11T23:36:02.363Z,16.40
2022-12-11T23:38:24.648Z,16.03
2022-12-11T23:40:47.187Z,17.17
2022-12-11T23:43:09.526Z,16.93
2022-12-11T23:45:39.238Z,17.27
2022-12-11T23:48:01.727Z,18.17
2022-12-11T23:50:24.279Z,17.23
2022-12-11T23:52:46.473Z,16.67
2022-12-11T23:55:10.337Z,15.43
2022-12-11T23:57:33.117Z,16.67
2022-12-11T23:59:55.360Z,16.83
